Main page
METAR-TAF:

METAR-TAF

Airports :

Monbetsu Airport

Monbetsu, Japan

latitude: 44-15N, longitude: 143-32E, elevation: 6 m

Current weather observation

The report was made 53 minutes ago, at 05:00 UTC
Wind 9 kt from the North/Northwest
Temperature 9°C
Humidity 71%
Pressure 1015 hPa
Visibility 10 km or more
Few clouds at a height of 1500 ft
Scattered clouds at a height of 3000 ft

METAR: RJEB 230500Z 34009KT 9999 FEW015 SCT030 09/04 Q1015

Time: 14:53 (05:53 UTC)


TAF: missing

Weather observations and forecasts of more than 4000 airports (METAR and TAF reports).

The available stations are represented by yellow and red dots on the map.

Hover mouse over dot to see the name of the station.

Then click to see weather observations and forecasts.

To change the map : click on the green buttons with a black cross to zoom in, on the green button with a dash to zoom out, or on the green arrows for adjacent maps.


METAR-TAF: